createdAt,value
2023-05-10T00:00:44.124Z,18.33
2023-05-10T00:03:11.004Z,18.17
2023-05-10T00:05:37.635Z,16.95
2023-05-10T00:08:04.265Z,16.47
2023-05-10T00:10:30.798Z,17.86
2023-05-10T00:12:57.422Z,16.74
2023-05-10T00:15:24.025Z,16.60
2023-05-10T00:17:50.721Z,18.75
2023-05-10T00:20:17.676Z,19.81
2023-05-10T00:22:44.599Z,18.91
2023-05-10T00:25:11.538Z,18.87
2023-05-10T00:27:38.105Z,18.21
2023-05-10T00:30:05.118Z,21.27
2023-05-10T00:32:31.749Z,24.69
2023-05-10T00:34:58.622Z,26.48
2023-05-10T00:37:25.199Z,28.93
2023-05-10T00:39:51.773Z,27.16
2023-05-10T00:42:18.410Z,32.70
2023-05-10T00:44:44.994Z,36.82
2023-05-10T00:47:12.559Z,35.14
2023-05-10T00:49:39.268Z,33.85
2023-05-10T00:52:05.866Z,34.32
2023-05-10T00:54:32.704Z,40.62
2023-05-10T00:56:59.704Z,47.38
2023-05-10T00:59:26.754Z,48.08
2023-05-10T01:01:54.215Z,47.36
2023-05-10T01:04:22.669Z,48.25
2023-05-10T01:06:49.268Z,50.20
2023-05-10T01:09:15.945Z,50.43
2023-05-10T01:11:42.775Z,48.56
2023-05-10T01:14:09.803Z,47.23
2023-05-10T01:16:39.576Z,47.08
2023-05-10T01:19:32.164Z,46.75
2023-05-10T01:22:36.428Z,47.52
2023-05-10T01:25:12.472Z,48.71
2023-05-10T01:28:16.600Z,47.42
2023-05-10T01:31:15.488Z,47.56
2023-05-10T01:33:50.046Z,43.50
2023-05-10T01:36:26.806Z,48.93
2023-05-10T01:39:05.584Z,47.98
2023-05-10T01:41:54.761Z,47.77
2023-05-10T01:44:37.116Z,48.40
2023-05-10T01:47:08.847Z,46.75
2023-05-10T01:50:03.061Z,50.15
2023-05-10T01:52:42.317Z,50.21
2023-05-10T01:55:12.220Z,48.47
2023-05-10T01:57:41.316Z,50.89
2023-05-10T02:00:09.519Z,50.38
2023-05-10T02:02:43.185Z,49.60
2023-05-10T02:05:13.307Z,52.20
2023-05-10T02:07:40.413Z,53.12
2023-05-10T02:10:08.924Z,49.54
2023-05-10T02:12:48.645Z,51.05
2023-05-10T02:15:21.915Z,48.41
2023-05-10T02:17:48.911Z,52.12
2023-05-10T02:20:17.567Z,51.78
2023-05-10T02:22:46.209Z,52.07
2023-05-10T02:25:14.898Z,49.80
2023-05-10T02:27:43.758Z,48.70
2023-05-10T02:30:11.561Z,50.66
2023-05-10T02:32:39.602Z,54.13
2023-05-10T02:35:07.451Z,49.53
2023-05-10T02:37:36.749Z,53.60
2023-05-10T02:40:06.466Z,49.68
2023-05-10T02:42:37.265Z,49.37
2023-05-10T02:45:09.064Z,52.51
2023-05-10T02:47:35.877Z,54.08
2023-05-10T02:50:02.988Z,54.05
2023-05-10T02:52:35.828Z,51.89
2023-05-10T02:55:04.717Z,52.27
2023-05-10T02:57:35.484Z,54.07
2023-05-10T03:00:04.210Z,51.56
2023-05-10T03:02:31.727Z,52.86
2023-05-10T03:04:58.378Z,51.69
2023-05-10T03:07:25.275Z,57.38
2023-05-10T03:09:52.275Z,58.40
2023-05-10T03:12:43.753Z,68.14
2023-05-10T03:15:29.020Z,69.88
2023-05-10T03:18:02.936Z,71.83
2023-05-10T03:20:38.393Z,74.94
2023-05-10T03:23:28.853Z,71.24
2023-05-10T03:25:55.521Z,74.13
2023-05-10T03:28:22.832Z,74.28
2023-05-10T03:30:51.217Z,76.67
2023-05-10T03:33:17.750Z,71.85
2023-05-10T03:35:46.655Z,75.44
2023-05-10T03:38:13.808Z,76.43
2023-05-10T03:40:40.526Z,73.80
2023-05-10T03:43:07.118Z,77.21
2023-05-10T03:45:33.632Z,73.61
2023-05-10T03:48:00.318Z,72.14
2023-05-10T03:50:27.270Z,71.65
2023-05-10T03:52:54.848Z,73.30
2023-05-10T03:55:21.567Z,71.79
2023-05-10T03:57:50.366Z,77.62
2023-05-10T04:00:17.666Z,72.30
2023-05-10T04:02:45.996Z,71.92
2023-05-10T04:05:13.485Z,72.33
2023-05-10T04:07:40.232Z,71.73
2023-05-10T04:10:07.430Z,70.98
2023-05-10T04:12:34.068Z,69.02
2023-05-10T04:15:01.217Z,67.57
2023-05-10T04:17:27.828Z,67.87
2023-05-10T04:19:55.620Z,62.12
2023-05-10T04:22:22.242Z,62.53
2023-05-10T04:24:48.770Z,60.98
2023-05-10T04:27:15.338Z,57.85
2023-05-10T04:29:42.464Z,59.68
2023-05-10T04:32:09.043Z,59.03
2023-05-10T04:34:35.603Z,56.17
2023-05-10T04:37:02.203Z,59.89
2023-05-10T04:39:28.778Z,60.21
2023-05-10T04:41:55.356Z,60.76
2023-05-10T04:44:21.929Z,61.11
2023-05-10T04:46:48.492Z,61.32
2023-05-10T04:49:15.376Z,62.70
2023-05-10T04:51:41.984Z,60.97
2023-05-10T04:54:08.561Z,60.70
2023-05-10T04:56:35.121Z,62.33
2023-05-10T04:59:01.751Z,62.06
2023-05-10T05:01:28.346Z,60.64
2023-05-10T05:03:55.160Z,60.34
2023-05-10T05:06:22.099Z,59.74
2023-05-10T05:08:50.621Z,62.57
2023-05-10T05:11:18.245Z,62.03
2023-05-10T05:13:44.834Z,58.03
2023-05-10T05:16:12.367Z,60.39
2023-05-10T05:18:39.408Z,60.71
2023-05-10T05:21:19.449Z,61.94
2023-05-10T05:23:46.403Z,61.91
2023-05-10T05:26:12.988Z,64.43
2023-05-10T05:28:39.697Z,64.14
2023-05-10T05:31:06.814Z,61.74
2023-05-10T05:33:33.419Z,65.45
2023-05-10T05:36:04.645Z,62.84
2023-05-10T05:38:31.363Z,63.67
2023-05-10T05:40:58.223Z,64.04
2023-05-10T05:43:24.807Z,67.28
2023-05-10T05:45:54.466Z,63.13
2023-05-10T05:48:21.228Z,62.41
2023-05-10T05:50:47.876Z,62.44
2023-05-10T05:53:14.433Z,59.30
2023-05-10T05:55:41.023Z,55.89
2023-05-10T05:58:07.568Z,53.43
2023-05-10T06:00:34.149Z,57.59
2023-05-10T06:03:00.900Z,57.62
2023-05-10T06:05:27.624Z,55.77
2023-05-10T06:07:54.179Z,52.01
2023-05-10T06:10:20.974Z,48.61
2023-05-10T06:12:47.634Z,50.64
2023-05-10T06:15:14.570Z,48.13
2023-05-10T06:17:41.467Z,44.03
2023-05-10T06:20:08.654Z,46.13
2023-05-10T06:22:35.468Z,50.94
2023-05-10T06:25:02.925Z,48.46
2023-05-10T06:27:29.450Z,50.35
2023-05-10T06:30:02.036Z,48.48
2023-05-10T06:32:36.150Z,46.38
2023-05-10T06:35:02.930Z,47.26
2023-05-10T06:37:29.509Z,46.49
2023-05-10T06:39:56.283Z,44.11
2023-05-10T06:42:22.868Z,43.76
2023-05-10T06:44:49.398Z,43.06
2023-05-10T06:47:15.990Z,40.84
2023-05-10T06:49:42.628Z,38.98
2023-05-10T06:52:09.158Z,38.53
2023-05-10T06:54:35.768Z,37.47
2023-05-10T06:57:05.752Z,34.60
2023-05-10T06:59:35.438Z,33.01
2023-05-10T07:02:02.091Z,32.19
2023-05-10T07:04:28.739Z,28.23
2023-05-10T07:06:55.478Z,27.31
2023-05-10T07:09:22.148Z,26.65
2023-05-10T07:11:48.669Z,24.54
2023-05-10T07:14:15.175Z,23.53
2023-05-10T07:16:41.845Z,21.73
2023-05-10T07:19:08.528Z,21.63
2023-05-10T07:21:36.179Z,22.96
2023-05-10T07:24:02.857Z,20.84
2023-05-10T07:26:29.888Z,19.19
2023-05-10T07:28:56.418Z,17.94
2023-05-10T07:31:22.940Z,17.88
2023-05-10T07:33:49.496Z,16.37
2023-05-10T07:36:16.094Z,17.21
2023-05-10T07:38:42.654Z,16.43
2023-05-10T07:41:09.178Z,17.48
2023-05-10T07:43:35.778Z,18.59
2023-05-10T07:46:02.616Z,18.17
2023-05-10T07:48:29.242Z,17.80
2023-05-10T07:50:55.747Z,18.27
2023-05-10T07:53:22.401Z,16.90
2023-05-10T07:55:52.952Z,17.10
2023-05-10T07:58:19.588Z,18.45
2023-05-10T08:00:46.153Z,17.09
2023-05-10T08:03:12.900Z,15.68
2023-05-10T08:05:39.649Z,14.51
2023-05-10T08:08:06.233Z,15.81
2023-05-10T08:10:32.892Z,15.73
2023-05-10T08:12:59.522Z,15.44
2023-05-10T08:15:26.498Z,15.80
2023-05-10T08:17:53.357Z,15.95
2023-05-10T08:20:20.000Z,15.47
2023-05-10T08:22:47.023Z,15.59
2023-05-10T08:25:13.686Z,16.31
2023-05-10T08:27:40.444Z,16.25
2023-05-10T08:30:07.695Z,16.15
2023-05-10T08:32:35.907Z,16.46
2023-05-10T08:35:02.836Z,17.96
2023-05-10T08:37:31.348Z,16.98
2023-05-10T08:39:57.930Z,17.45
2023-05-10T08:42:28.566Z,17.73
2023-05-10T08:44:55.480Z,17.11
2023-05-10T08:47:22.684Z,18.16
2023-05-10T08:49:52.263Z,17.60
2023-05-10T08:52:19.683Z,18.21
2023-05-10T08:54:46.335Z,17.66
2023-05-10T08:57:13.069Z,17.64
2023-05-10T08:59:40.881Z,17.39
2023-05-10T09:02:11.259Z,16.99
2023-05-10T09:04:37.887Z,16.66
2023-05-10T09:07:04.788Z,16.34
2023-05-10T09:09:32.356Z,16.27
2023-05-10T09:11:58.970Z,15.96
2023-05-10T09:14:26.343Z,16.32
2023-05-10T09:16:55.188Z,14.57
2023-05-10T09:19:21.822Z,13.87
2023-05-10T09:21:48.379Z,13.19
2023-05-10T09:24:14.972Z,12.49
2023-05-10T09:26:50.357Z,11.29
2023-05-10T09:29:17.857Z,11.16
2023-05-10T09:31:48.614Z,11.64
2023-05-10T09:34:20.334Z,12.10
2023-05-10T09:36:58.970Z,10.11
2023-05-10T09:39:36.630Z,10.83
2023-05-10T09:42:08.329Z,9.63
2023-05-10T09:44:35.931Z,9.84
2023-05-10T09:47:03.508Z,8.26
2023-05-10T09:49:30.817Z,8.27
2023-05-10T09:52:08.252Z,8.20
2023-05-10T09:54:35.627Z,7.95
2023-05-10T09:57:02.653Z,7.20
2023-05-10T09:59:30.451Z,7.06
2023-05-10T10:01:58.519Z,7.84
2023-05-10T10:04:25.231Z,8.48
2023-05-10T10:07:02.886Z,7.78
2023-05-10T10:09:30.300Z,7.89
2023-05-10T10:11:57.637Z,7.59
2023-05-10T10:14:27.204Z,7.59
2023-05-10T10:17:06.644Z,7.71
2023-05-10T10:19:36.584Z,7.61
2023-05-10T10:22:03.801Z,7.77
2023-05-10T10:24:30.700Z,8.13
2023-05-10T10:27:09.190Z,8.22
2023-05-10T10:30:03.754Z,8.93
2023-05-10T10:32:49.241Z,8.27
2023-05-10T10:35:17.017Z,8.71
2023-05-10T10:37:48.513Z,9.10
2023-05-10T10:40:28.458Z,9.81
2023-05-10T10:42:56.144Z,9.57
2023-05-10T10:45:24.062Z,9.32
2023-05-10T10:48:14.792Z,10.45
2023-05-10T10:50:46.640Z,10.74
2023-05-10T10:53:13.970Z,10.07
2023-05-10T10:55:48.776Z,9.41
2023-05-10T10:58:34.747Z,8.92
2023-05-10T11:01:16.438Z,9.58
2023-05-10T11:04:05.580Z,8.88
2023-05-10T11:06:33.382Z,9.17
2023-05-10T11:09:06.669Z,9.48
2023-05-10T11:11:33.427Z,9.77
2023-05-10T11:14:05.187Z,10.13
2023-05-10T11:16:45.063Z,8.81
2023-05-10T11:19:14.353Z,9.34
2023-05-10T11:21:52.387Z,8.83
2023-05-10T11:24:21.836Z,8.21
2023-05-10T11:26:51.199Z,8.61
2023-05-10T11:29:18.064Z,8.37
2023-05-10T11:31:46.365Z,8.30
2023-05-10T11:34:23.593Z,8.54
2023-05-10T11:36:57.435Z,8.31
2023-05-10T11:39:28.440Z,7.86
2023-05-10T11:41:55.608Z,8.11
2023-05-10T11:44:22.171Z,8.04
2023-05-10T11:46:50.313Z,7.98
2023-05-10T11:49:16.924Z,7.42
2023-05-10T11:51:44.405Z,7.16
2023-05-10T11:54:12.223Z,7.06
2023-05-10T11:56:39.819Z,7.08
2023-05-10T11:59:06.769Z,6.29
2023-05-10T12:01:34.213Z,6.50
2023-05-10T12:04:02.057Z,5.95
2023-05-10T12:06:32.596Z,5.73
2023-05-10T12:09:00.578Z,5.80
2023-05-10T12:11:29.083Z,6.18
2023-05-10T12:13:57.287Z,5.98
2023-05-10T12:16:26.319Z,6.02
2023-05-10T12:18:55.632Z,5.93
2023-05-10T12:21:22.506Z,5.70
2023-05-10T12:23:51.666Z,5.58
2023-05-10T12:26:18.348Z,5.35
2023-05-10T12:28:45.253Z,5.12
2023-05-10T12:31:11.844Z,5.19
2023-05-10T12:33:43.700Z,5.52
2023-05-10T12:36:12.154Z,5.47
2023-05-10T12:38:41.220Z,5.06
2023-05-10T12:41:13.600Z,4.92
2023-05-10T12:43:41.011Z,4.83
2023-05-10T12:46:13.231Z,4.49
2023-05-10T12:48:41.989Z,4.40
2023-05-10T12:51:10.288Z,4.40
2023-05-10T12:53:37.640Z,4.42
2023-05-10T12:56:04.467Z,4.51
2023-05-10T12:58:35.928Z,4.66
2023-05-10T13:01:03.648Z,4.47
2023-05-10T13:03:30.282Z,3.90
2023-05-10T13:05:56.847Z,3.64
2023-05-10T13:08:23.353Z,3.76
2023-05-10T13:10:50.297Z,4.19
2023-05-10T13:13:16.837Z,4.02
2023-05-10T13:15:43.340Z,3.83
2023-05-10T13:18:09.880Z,5.39
2023-05-10T13:20:36.568Z,7.55
2023-05-10T13:23:03.651Z,7.15
2023-05-10T13:25:30.895Z,6.83
2023-05-10T13:27:57.449Z,7.48
2023-05-10T13:30:24.809Z,7.76
2023-05-10T13:32:51.460Z,7.56
2023-05-10T13:35:18.057Z,7.25
2023-05-10T13:37:44.596Z,7.03
2023-05-10T13:40:11.343Z,6.61
2023-05-10T13:42:38.478Z,6.56
2023-05-10T13:45:05.619Z,6.45
2023-05-10T13:47:32.221Z,6.15
2023-05-10T13:49:59.313Z,6.19
2023-05-10T13:52:26.780Z,6.58
2023-05-10T13:54:55.730Z,7.57
2023-05-10T13:57:22.859Z,8.02
2023-05-10T13:59:49.462Z,8.09
2023-05-10T14:02:16.080Z,7.43
2023-05-10T14:04:42.606Z,8.08
2023-05-10T14:07:09.232Z,7.84
2023-05-10T14:09:35.844Z,8.13
2023-05-10T14:12:03.065Z,8.25
2023-05-10T14:14:30.389Z,7.94
2023-05-10T14:16:57.116Z,7.77
2023-05-10T14:19:23.692Z,8.28
2023-05-10T14:21:50.377Z,8.12
2023-05-10T14:24:16.902Z,8.29
2023-05-10T14:26:43.433Z,7.94
2023-05-10T14:29:11.549Z,8.46
2023-05-10T14:31:39.108Z,8.60
2023-05-10T14:34:06.632Z,8.87
2023-05-10T14:36:33.349Z,8.94
2023-05-10T14:38:59.931Z,8.80
2023-05-10T14:41:26.447Z,8.93
2023-05-10T14:43:53.991Z,9.34
2023-05-10T14:46:20.773Z,9.26
2023-05-10T14:48:47.485Z,9.91
2023-05-10T14:51:14.444Z,10.02
2023-05-10T14:53:41.061Z,9.35
2023-05-10T14:56:07.947Z,10.04
2023-05-10T14:58:34.573Z,10.68
2023-05-10T15:01:01.615Z,10.38
2023-05-10T15:03:29.092Z,10.64
2023-05-10T15:05:57.060Z,10.75
2023-05-10T15:08:25.390Z,10.56
2023-05-10T15:10:52.617Z,10.61
2023-05-10T15:13:19.142Z,10.10
2023-05-10T15:15:45.740Z,10.65
2023-05-10T15:18:12.611Z,10.72
2023-05-10T15:20:39.216Z,10.74
2023-05-10T15:23:05.794Z,10.41
2023-05-10T15:25:35.166Z,10.84
2023-05-10T15:28:03.360Z,10.96
2023-05-10T15:30:30.046Z,10.86
2023-05-10T15:32:56.875Z,11.03
2023-05-10T15:35:23.472Z,11.26
2023-05-10T15:37:50.380Z,11.54
2023-05-10T15:40:16.904Z,10.69
2023-05-10T15:42:43.512Z,10.75
2023-05-10T15:45:11.680Z,10.45
2023-05-10T15:47:40.346Z,10.54
2023-05-10T15:50:08.364Z,10.77
2023-05-10T15:52:35.182Z,9.56
2023-05-10T15:55:01.775Z,9.65
2023-05-10T15:57:29.529Z,10.01
2023-05-10T15:59:56.346Z,9.73
2023-05-10T16:02:23.413Z,9.91
2023-05-10T16:04:50.141Z,9.07
2023-05-10T16:07:16.721Z,8.54
2023-05-10T16:09:43.286Z,8.63
2023-05-10T16:12:09.920Z,8.66
2023-05-10T16:14:36.513Z,8.52
2023-05-10T16:17:04.291Z,9.05
2023-05-10T16:19:31.218Z,8.57
2023-05-10T16:21:57.883Z,8.53
2023-05-10T16:24:25.041Z,8.89
2023-05-10T16:26:51.774Z,8.66
2023-05-10T16:29:18.273Z,9.45
2023-05-10T16:31:44.844Z,8.79
2023-05-10T16:34:11.361Z,8.53
2023-05-10T16:36:37.914Z,13.95
2023-05-10T16:39:04.581Z,15.45
2023-05-10T16:41:34.649Z,14.15
2023-05-10T16:44:01.855Z,12.62
2023-05-10T16:46:28.535Z,15.40
2023-05-10T16:48:55.119Z,21.76
2023-05-10T16:51:21.625Z,17.14
2023-05-10T16:53:48.214Z,8.58
2023-05-10T16:56:14.773Z,8.25
2023-05-10T16:58:41.366Z,7.64
2023-05-10T17:01:08.065Z,7.23
2023-05-10T17:03:34.744Z,7.38
2023-05-10T17:06:01.440Z,6.98
2023-05-10T17:08:27.959Z,6.82
2023-05-10T17:10:54.469Z,6.59
2023-05-10T17:13:20.961Z,6.80
2023-05-10T17:15:47.567Z,6.62
2023-05-10T17:18:14.112Z,6.61
2023-05-10T17:20:44.022Z,6.41
2023-05-10T17:23:11.144Z,5.83
2023-05-10T17:25:37.701Z,5.91
2023-05-10T17:28:04.577Z,5.90
2023-05-10T17:30:32.618Z,5.77
2023-05-10T17:33:02.660Z,5.69
2023-05-10T17:35:31.298Z,5.64
2023-05-10T17:37:58.221Z,6.00
2023-05-10T17:40:24.797Z,6.29
2023-05-10T17:42:52.080Z,6.22
2023-05-10T17:45:18.954Z,6.57
2023-05-10T17:47:45.712Z,6.51
2023-05-10T17:50:12.244Z,6.36
2023-05-10T17:52:38.820Z,7.34
2023-05-10T17:55:05.812Z,8.04
2023-05-10T17:57:32.414Z,7.92
2023-05-10T17:59:58.936Z,8.17
2023-05-10T18:02:25.603Z,8.50
2023-05-10T18:04:52.355Z,8.53
2023-05-10T18:07:19.000Z,8.18
2023-05-10T18:09:45.564Z,8.89
2023-05-10T18:12:12.115Z,8.76
2023-05-10T18:14:41.376Z,9.09
2023-05-10T18:17:09.405Z,8.39
2023-05-10T18:19:36.110Z,9.20
2023-05-10T18:22:02.751Z,9.22
2023-05-10T18:24:37.530Z,8.94
2023-05-10T18:27:06.621Z,9.27
2023-05-10T18:29:33.216Z,9.69
2023-05-10T18:31:59.794Z,9.71
2023-05-10T18:34:26.405Z,9.69
2023-05-10T18:36:53.126Z,10.59
2023-05-10T18:39:19.707Z,10.34
2023-05-10T18:41:46.444Z,10.44
2023-05-10T18:44:13.045Z,10.53
2023-05-10T18:46:39.746Z,10.60
2023-05-10T18:49:08.335Z,11.00
2023-05-10T18:51:35.634Z,11.37
2023-05-10T18:54:02.360Z,11.04
2023-05-10T18:56:28.865Z,11.37
2023-05-10T18:58:55.450Z,12.08
2023-05-10T19:01:22.056Z,11.32
2023-05-10T19:03:48.645Z,10.85
2023-05-10T19:06:15.269Z,11.15
2023-05-10T19:08:41.848Z,11.58
2023-05-10T19:11:08.452Z,11.49
2023-05-10T19:13:35.121Z,11.44
2023-05-10T19:16:06.510Z,11.37
2023-05-10T19:18:33.693Z,11.52
2023-05-10T19:21:04.358Z,11.77
2023-05-10T19:23:35.003Z,11.99
2023-05-10T19:26:02.008Z,12.99
2023-05-10T19:28:28.665Z,12.55
2023-05-10T19:30:55.257Z,12.06
2023-05-10T19:33:21.827Z,11.57
2023-05-10T19:35:52.055Z,11.60
2023-05-10T19:38:25.508Z,12.07
2023-05-10T19:40:57.969Z,12.04
2023-05-10T19:43:34.425Z,12.18
2023-05-10T19:46:02.465Z,11.99
2023-05-10T19:48:29.148Z,12.07
2023-05-10T19:51:00.844Z,11.90
2023-05-10T19:53:27.768Z,11.56
2023-05-10T19:55:55.439Z,11.43
2023-05-10T19:58:22.409Z,11.80
2023-05-10T20:00:48.965Z,11.76
2023-05-10T20:03:15.529Z,11.26
2023-05-10T20:05:42.060Z,12.74
2023-05-10T20:08:08.595Z,12.63
2023-05-10T20:10:35.141Z,12.65
2023-05-10T20:13:01.654Z,12.34
2023-05-10T20:15:29.172Z,12.44
2023-05-10T20:17:55.831Z,13.13
2023-05-10T20:20:22.562Z,13.35
2023-05-10T20:22:50.051Z,12.62
2023-05-10T20:25:17.922Z,12.71
2023-05-10T20:27:44.652Z,12.34
2023-05-10T20:30:11.982Z,12.09
2023-05-10T20:32:39.147Z,12.70
2023-05-10T20:35:07.082Z,12.15
2023-05-10T20:37:33.647Z,12.98
2023-05-10T20:40:00.214Z,13.20
2023-05-10T20:42:26.976Z,13.59
2023-05-10T20:44:53.524Z,12.75
2023-05-10T20:47:20.152Z,12.91
2023-05-10T20:49:46.767Z,13.28
2023-05-10T20:52:13.403Z,12.42
2023-05-10T20:54:39.899Z,12.32
2023-05-10T20:57:06.561Z,12.38
2023-05-10T20:59:33.523Z,13.29
2023-05-10T21:02:00.320Z,13.55
2023-05-10T21:04:27.078Z,12.43
2023-05-10T21:06:55.573Z,13.17
2023-05-10T21:09:22.294Z,12.26
2023-05-10T21:11:49.833Z,12.95
2023-05-10T21:14:16.580Z,13.14
2023-05-10T21:16:43.249Z,12.86
2023-05-10T21:19:10.108Z,12.72
2023-05-10T21:21:36.724Z,12.48
2023-05-10T21:24:03.426Z,12.66
2023-05-10T21:26:29.996Z,11.92
2023-05-10T21:28:56.572Z,12.52
2023-05-10T21:31:23.192Z,12.10
2023-05-10T21:33:49.771Z,13.33
2023-05-10T21:36:16.341Z,12.99
2023-05-10T21:38:44.537Z,14.07
2023-05-10T21:41:11.223Z,14.37
2023-05-10T21:43:37.841Z,14.39
2023-05-10T21:46:04.729Z,14.39
2023-05-10T21:48:31.433Z,14.67
2023-05-10T21:50:58.679Z,14.89
2023-05-10T21:53:25.293Z,15.49
2023-05-10T21:55:52.098Z,13.68
2023-05-10T21:58:18.781Z,13.99
2023-05-10T22:00:46.029Z,14.78
2023-05-10T22:03:12.783Z,14.29
2023-05-10T22:05:39.493Z,14.62
2023-05-10T22:08:08.888Z,15.87
2023-05-10T22:10:35.492Z,15.08
2023-05-10T22:13:02.032Z,14.31
2023-05-10T22:15:28.716Z,15.11
2023-05-10T22:17:55.264Z,14.59
2023-05-10T22:20:22.094Z,14.29
2023-05-10T22:22:48.826Z,14.58
2023-05-10T22:25:15.461Z,14.39
2023-05-10T22:27:42.060Z,14.35
2023-05-10T22:30:09.296Z,14.74
2023-05-10T22:32:35.943Z,14.68
2023-05-10T22:35:03.195Z,14.23
2023-05-10T22:37:29.812Z,14.16
2023-05-10T22:39:56.384Z,14.21
2023-05-10T22:42:22.929Z,15.05
2023-05-10T22:44:49.441Z,15.71
2023-05-10T22:47:16.623Z,15.11
2023-05-10T22:49:43.223Z,16.11
2023-05-10T22:52:10.153Z,17.08
2023-05-10T22:54:36.772Z,16.77
2023-05-10T22:57:03.424Z,16.65
2023-05-10T22:59:30.113Z,16.13
2023-05-10T23:01:56.742Z,16.97
2023-05-10T23:04:23.331Z,16.17
2023-05-10T23:06:49.945Z,18.87
2023-05-10T23:09:17.123Z,18.47
2023-05-10T23:11:43.661Z,18.80
2023-05-10T23:14:10.187Z,19.76
2023-05-10T23:16:36.857Z,18.01
2023-05-10T23:19:03.467Z,18.67
2023-05-10T23:21:32.038Z,18.45
2023-05-10T23:23:59.069Z,18.07
2023-05-10T23:26:25.801Z,18.79
2023-05-10T23:28:52.371Z,19.77
2023-05-10T23:31:18.947Z,19.21
2023-05-10T23:33:45.540Z,19.97
2023-05-10T23:36:12.356Z,20.17
2023-05-10T23:38:39.418Z,19.93
2023-05-10T23:41:06.211Z,19.70
2023-05-10T23:43:32.841Z,20.83
2023-05-10T23:45:59.563Z,22.10
2023-05-10T23:48:26.349Z,22.12
2023-05-10T23:50:52.900Z,21.85
2023-05-10T23:53:19.449Z,22.15
2023-05-10T23:55:46.060Z,21.21
2023-05-10T23:58:12.714Z,21.47
